Ana Sayfa
METAR-TAF:

METAR-TAF

Havaalanları :

Ocean City Municipal Airport

Ocean City, Maryland, Amerika Birleşik Devletleri

Enlem: 38-18-38N, Boylam: 075-07-26W, yükseklik: 4 m

Güncel hava durumu gözlemi

Rapor saat 08:53 UTC de 38 dakika önce yapıldı.
Rüzgar batıdan 5 kt
Sıcaklık 27°C
Nem 84%
Basınç 1012 hPa
Görüş mesafesi: 16.1 km
Açık gökyüzü

METAR: KOXB 220853Z AUTO 26005KT 10SM CLR 27/24 A2987 RMK AO2 SLP115 T02670239 58003

Saat: 05:31 (09:31 UTC)


TAF: eksik

4.000'den fazla havaalanı için hava durumu gözlemleri ve tahminleri (METAR ve TAF raporları).

Kullanılabilir istasyonlar harita üzerinde sarı ve kırmızı noktalarla gösterilir.

İstasyonun adını görmek için fareyi noktanın üzerinde gezdirin.

Sonrasında hava gözlem ve tahminlerini görmek için tıklayın.

Haritayı değiştirmek için: yaklaştırmak için siyah artı işaretli yeşil düğmeye ve uzaklaştırmak için de eksi işaretli düğmeye hızla tıklayın; bitişik haritalar için yeşil okları kullanın.


METAR-TAF: